createdAt,value
2023-01-30T00:00:13.492Z,93752.59
2023-01-30T00:05:17.168Z,93762.59
2023-01-30T00:10:20.505Z,93769.41
2023-01-30T00:15:23.482Z,93775.88
2023-01-30T00:20:26.658Z,93773.22
2023-01-30T00:25:31.711Z,93769.22
2023-01-30T00:30:34.879Z,93769.19
2023-01-30T00:35:37.976Z,93745.25
2023-01-30T00:40:42.161Z,93769.13
2023-01-30T00:46:03.967Z,93758.34
2023-01-30T00:51:07.367Z,93755.47
2023-01-30T00:56:11.425Z,93761.91
2023-01-30T01:01:14.861Z,93759.22
2023-01-30T01:06:18.371Z,93736.56
2023-01-30T01:11:27.392Z,93749.81
2023-01-30T01:16:32.227Z,93745.66
2023-01-30T01:21:35.732Z,93746.50
2023-01-30T01:26:42.071Z,93743.25
2023-01-30T01:31:47.452Z,93737.41
2023-01-30T01:36:53.758Z,93737.91
2023-01-30T01:41:57.708Z,93691.50
2023-01-30T01:47:00.777Z,93739.91
2023-01-30T01:52:06.782Z,93746.38
2023-01-30T01:57:18.704Z,93721.56
2023-01-30T02:02:22.630Z,93749.44
2023-01-30T02:07:29.750Z,93745.00
2023-01-30T02:12:34.183Z,93738.00
2023-01-30T02:17:37.952Z,93746.25
2023-01-30T02:23:18.205Z,93746.56
2023-01-30T02:28:39.999Z,93746.59
2023-01-30T02:34:11.801Z,93743.56
2023-01-30T02:39:39.221Z,93738.34
2023-01-30T02:45:01.585Z,93732.19
2023-01-30T02:50:14.642Z,93729.19
2023-01-30T02:55:27.243Z,93725.38
2023-01-30T03:00:38.953Z,93725.53
2023-01-30T03:06:17.090Z,93726.81
2023-01-30T03:11:25.357Z,93724.91
2023-01-30T03:16:39.966Z,93736.25
2023-01-30T03:21:45.260Z,93727.72
2023-01-30T03:27:11.620Z,93717.44
2023-01-30T03:32:14.566Z,93704.47
2023-01-30T03:37:18.220Z,93722.78
2023-01-30T03:42:21.499Z,93720.06
2023-01-30T03:47:25.403Z,93725.09
2023-01-30T03:52:30.086Z,93729.81
2023-01-30T03:57:33.070Z,93720.69
2023-01-30T04:02:39.144Z,93708.41
2023-01-30T04:07:42.213Z,93707.00
2023-01-30T04:12:47.821Z,93718.22
2023-01-30T04:17:52.045Z,93706.38
2023-01-30T04:23:31.054Z,93703.53
2023-01-30T04:28:35.171Z,93701.47
2023-01-30T04:33:40.419Z,93691.03
2023-01-30T04:38:45.384Z,93679.97
2023-01-30T04:43:48.965Z,93698.00
2023-01-30T04:49:10.330Z,93681.88
2023-01-30T04:54:13.720Z,93686.28
2023-01-30T04:59:18.472Z,93708.72
2023-01-30T05:04:24.418Z,93710.78
2023-01-30T05:09:27.963Z,93715.31
2023-01-30T05:14:30.928Z,93714.97
2023-01-30T05:19:34.316Z,93719.06
2023-01-30T05:24:37.366Z,93716.22
2023-01-30T05:29:40.407Z,93713.38
2023-01-30T05:34:43.614Z,93720.63
2023-01-30T05:39:46.634Z,93713.00
2023-01-30T05:44:49.939Z,93715.34
2023-01-30T05:49:53.713Z,93729.69
2023-01-30T05:54:56.739Z,93716.84
2023-01-30T06:00:00.928Z,93736.06
2023-01-30T06:05:04.265Z,93742.84
2023-01-30T06:10:08.217Z,93676.66
2023-01-30T06:15:11.963Z,93734.56
2023-01-30T06:20:16.056Z,93749.47
2023-01-30T06:25:19.780Z,93756.19
2023-01-30T06:30:24.331Z,93764.13
2023-01-30T06:35:27.931Z,93767.50
2023-01-30T06:40:31.503Z,93762.19
2023-01-30T06:45:34.958Z,93764.59
2023-01-30T06:50:38.820Z,93767.78
2023-01-30T06:55:42.787Z,93779.97
2023-01-30T07:00:47.193Z,93786.31
2023-01-30T07:05:50.299Z,93780.78
2023-01-30T07:10:53.841Z,93775.88
2023-01-30T07:15:57.909Z,93765.69
2023-01-30T07:21:01.578Z,93759.38
2023-01-30T07:26:06.386Z,93763.88
2023-01-30T07:31:09.442Z,93767.75
2023-01-30T07:36:12.910Z,93766.03
2023-01-30T07:41:16.388Z,93777.03
2023-01-30T07:46:19.617Z,93769.38
2023-01-30T07:51:23.078Z,93777.47
2023-01-30T07:56:26.537Z,93757.72
2023-01-30T08:01:30.129Z,93764.06
2023-01-30T08:06:37.400Z,93778.84
2023-01-30T08:11:40.828Z,93779.06
2023-01-30T08:16:43.960Z,93780.56
2023-01-30T08:21:47.028Z,93764.78
2023-01-30T08:26:50.623Z,93780.97
2023-01-30T08:31:58.811Z,93778.28
2023-01-30T08:37:02.220Z,93777.19
2023-01-30T08:42:05.939Z,93787.09
2023-01-30T08:47:09.088Z,93789.97
2023-01-30T08:52:12.804Z,93788.84
2023-01-30T08:57:16.605Z,93800.53
2023-01-30T09:02:20.558Z,93794.72
2023-01-30T09:07:23.709Z,93803.03
2023-01-30T09:12:27.738Z,93793.47
2023-01-30T09:17:30.876Z,93813.16
2023-01-30T09:22:34.618Z,93811.56
2023-01-30T09:27:37.793Z,93817.84
2023-01-30T09:32:41.323Z,93828.28
2023-01-30T09:37:53.596Z,93828.06
2023-01-30T09:43:18.915Z,93821.38
2023-01-30T09:48:32.815Z,93820.78
2023-01-30T09:53:59.488Z,93824.66
2023-01-30T09:59:05.699Z,93823.19
2023-01-30T10:04:21.812Z,93820.97
2023-01-30T10:09:51.958Z,93829.19
2023-01-30T10:15:22.784Z,93820.47
2023-01-30T10:20:49.547Z,93816.63
2023-01-30T10:26:00.354Z,93795.38
2023-01-30T10:31:26.697Z,93789.25
2023-01-30T10:36:57.189Z,93795.50
2023-01-30T10:42:13.410Z,93791.59
2023-01-30T10:47:34.748Z,93788.22
2023-01-30T10:52:54.227Z,93777.78
2023-01-30T10:58:23.850Z,93780.38
2023-01-30T11:03:33.316Z,93784.31
2023-01-30T11:08:36.845Z,93766.38
2023-01-30T11:13:39.843Z,93760.06
2023-01-30T11:19:18.757Z,93755.09
2023-01-30T11:24:17.820Z,93745.84
2023-01-30T11:29:30.363Z,93742.56
2023-01-30T11:34:33.983Z,93744.16
2023-01-30T11:39:37.733Z,93750.00
2023-01-30T11:44:42.792Z,93745.22
2023-01-30T11:50:11.988Z,93743.34
2023-01-30T11:55:21.444Z,93741.44
2023-01-30T12:00:37.450Z,93730.44
2023-01-30T12:05:44.543Z,93718.66
2023-01-30T12:10:52.249Z,93712.44
2023-01-30T12:16:26.096Z,93714.41
2023-01-30T12:21:56.730Z,93704.88
2023-01-30T12:27:21.991Z,93707.22
2023-01-30T12:32:29.076Z,93705.75
2023-01-30T12:38:16.420Z,93688.88
2023-01-30T12:43:57.089Z,93696.53
2023-01-30T12:49:22.192Z,93683.13
2023-01-30T12:54:54.134Z,93674.47
2023-01-30T13:00:22.274Z,93670.84
2023-01-30T13:05:28.702Z,93668.31
2023-01-30T13:10:33.829Z,93667.13
2023-01-30T13:15:59.670Z,93657.53
2023-01-30T13:21:14.221Z,93664.25
2023-01-30T13:26:28.895Z,93663.13
2023-01-30T13:31:39.266Z,93654.94
2023-01-30T13:36:52.507Z,93660.19
2023-01-30T13:41:58.078Z,93651.91
2023-01-30T13:47:19.294Z,93646.25
2023-01-30T13:53:03.117Z,93645.69
2023-01-30T13:58:32.445Z,93659.22
2023-01-30T14:03:35.595Z,93658.44
2023-01-30T14:08:45.376Z,93664.91
2023-01-30T14:13:53.900Z,93660.91
2023-01-30T14:18:57.316Z,93659.72
2023-01-30T14:24:02.840Z,93669.28
2023-01-30T14:29:08.536Z,93668.84
2023-01-30T14:34:45.992Z,93675.97
2023-01-30T14:39:54.231Z,93671.59
2023-01-30T14:44:58.947Z,93664.25
2023-01-30T14:50:03.061Z,93668.97
2023-01-30T14:55:15.554Z,93670.88
2023-01-30T15:00:21.265Z,93673.00
2023-01-30T15:05:37.575Z,93679.31
2023-01-30T15:10:59.737Z,93683.00
2023-01-30T15:16:23.798Z,93683.13
2023-01-30T15:21:49.311Z,93690.81
2023-01-30T15:27:21.001Z,93688.09
2023-01-30T15:32:26.738Z,93691.94
2023-01-30T15:37:37.428Z,93695.56
2023-01-30T15:43:02.389Z,93690.81
2023-01-30T15:48:29.332Z,93700.28
2023-01-30T15:53:40.185Z,93717.50
2023-01-30T15:58:44.965Z,93714.53
2023-01-30T16:03:50.428Z,93711.69
2023-01-30T16:09:03.189Z,93709.22
2023-01-30T16:14:12.387Z,93647.28
2023-01-30T16:19:37.628Z,93711.66
2023-01-30T16:24:50.059Z,93706.22
2023-01-30T16:29:58.631Z,93716.38
2023-01-30T16:35:28.293Z,93681.38
2023-01-30T16:40:44.574Z,93696.31
2023-01-30T16:45:47.649Z,93714.03
2023-01-30T16:51:19.507Z,93723.25
2023-01-30T16:56:23.464Z,93721.91
2023-01-30T17:01:42.112Z,93734.16
2023-01-30T17:06:53.464Z,93724.94
2023-01-30T17:11:56.466Z,93723.94
2023-01-30T17:17:04.504Z,93725.50
2023-01-30T17:22:24.648Z,93725.41
2023-01-30T17:27:31.727Z,93718.38
2023-01-30T17:32:35.139Z,93726.25
2023-01-30T17:37:38.217Z,93725.22
2023-01-30T17:42:41.216Z,93720.38
2023-01-30T17:47:44.739Z,93729.94
2023-01-30T17:52:51.287Z,93721.69
2023-01-30T17:57:56.837Z,93734.47
2023-01-30T18:03:00.294Z,93720.13
2023-01-30T18:08:03.789Z,93728.31
2023-01-30T18:13:07.248Z,93707.06
2023-01-30T18:18:17.793Z,93712.78
2023-01-30T18:23:22.482Z,93714.19
2023-01-30T18:28:25.825Z,93703.66
2023-01-30T18:33:29.509Z,93708.72
2023-01-30T18:38:32.589Z,93721.81
2023-01-30T18:43:36.138Z,93713.59
2023-01-30T18:48:39.236Z,93725.81
2023-01-30T18:53:44.319Z,93729.22
2023-01-30T18:58:50.003Z,93721.19
2023-01-30T19:04:02.750Z,93725.22
2023-01-30T19:09:12.868Z,93726.06
2023-01-30T19:14:16.443Z,93716.88
2023-01-30T19:19:19.407Z,93731.13
2023-01-30T19:24:23.907Z,93721.81
2023-01-30T19:29:27.036Z,93730.34
2023-01-30T19:34:30.170Z,93737.84
2023-01-30T19:39:33.194Z,93744.34
2023-01-30T19:44:37.981Z,93731.94
2023-01-30T19:49:42.480Z,93720.50
2023-01-30T19:54:47.811Z,93728.25
2023-01-30T19:59:51.348Z,93716.44
2023-01-30T20:04:55.320Z,93712.84
2023-01-30T20:09:59.018Z,93731.56
2023-01-30T20:15:03.747Z,93736.00
2023-01-30T20:20:08.331Z,93731.13
2023-01-30T20:25:17.205Z,93728.97
2023-01-30T20:30:22.460Z,93730.88
2023-01-30T20:35:27.460Z,93739.16
2023-01-30T20:40:31.351Z,93732.47
2023-01-30T20:45:34.359Z,93728.66
2023-01-30T20:50:37.349Z,93715.66
2023-01-30T20:55:42.409Z,93730.81
2023-01-30T21:00:45.869Z,93743.59
2023-01-30T21:05:59.567Z,93746.97
2023-01-30T21:11:14.365Z,93730.97
2023-01-30T21:16:24.028Z,93740.88
2023-01-30T21:21:34.560Z,93724.91
2023-01-30T21:26:41.400Z,93741.19
2023-01-30T21:31:45.531Z,93741.19
2023-01-30T21:37:09.262Z,93739.53
2023-01-30T21:42:31.063Z,93725.81
2023-01-30T21:47:34.735Z,93715.00
2023-01-30T21:52:39.073Z,93707.56
2023-01-30T21:57:42.424Z,93707.28
2023-01-30T22:02:49.390Z,93719.72
2023-01-30T22:07:52.424Z,93716.06
2023-01-30T22:12:56.416Z,93713.72
2023-01-30T22:18:00.668Z,93718.75
2023-01-30T22:23:04.690Z,93710.69
2023-01-30T22:28:10.224Z,93725.25
2023-01-30T22:33:13.599Z,93720.69
2023-01-30T22:38:17.304Z,93717.47
2023-01-30T22:43:20.785Z,93712.19
2023-01-30T22:48:24.317Z,93709.69
2023-01-30T22:53:27.990Z,93724.00
2023-01-30T22:58:31.508Z,93700.88
2023-01-30T23:03:36.858Z,93705.38
2023-01-30T23:08:42.100Z,93693.34
2023-01-30T23:13:48.080Z,93694.78
2023-01-30T23:18:59.045Z,93698.75
2023-01-30T23:24:06.912Z,93702.06
2023-01-30T23:29:13.687Z,93676.91
2023-01-30T23:34:19.228Z,93656.88
2023-01-30T23:39:23.241Z,93672.69
2023-01-30T23:44:26.309Z,93693.88
2023-01-30T23:49:29.352Z,93672.69
2023-01-30T23:54:32.410Z,93676.00
2023-01-30T23:59:35.598Z,93660.19
